createdAt,value
2018-08-17T04:32:52.382Z,95.70
2018-08-17T04:35:20.650Z,95.80
2018-08-17T04:37:48.735Z,95.70
2018-08-17T04:40:16.791Z,95.50
2018-08-17T04:42:44.915Z,95.10
2018-08-17T04:45:13.034Z,95.00
2018-08-17T04:47:41.136Z,94.80
2018-08-17T04:50:09.904Z,94.80
2018-08-17T04:52:38.449Z,94.80
2018-08-17T04:55:06.849Z,94.60
2018-08-17T04:57:35.187Z,94.70
2018-08-17T05:00:04.081Z,94.60
2018-08-17T05:02:32.216Z,94.50
2018-08-17T05:05:00.324Z,94.40
2018-08-17T05:07:28.427Z,94.30
2018-08-17T05:09:56.536Z,94.20
2018-08-17T05:12:24.711Z,94.30
2018-08-17T05:14:52.845Z,94.10
2018-08-17T05:17:20.929Z,94.00
2018-08-17T05:19:49.078Z,94.00
2018-08-17T05:22:17.207Z,94.00
2018-08-17T05:24:45.379Z,93.40
2018-08-17T05:27:13.513Z,92.10
2018-08-17T05:29:41.635Z,90.60
2018-08-17T05:32:09.759Z,88.10
2018-08-17T05:34:37.836Z,85.90
2018-08-17T05:37:06.271Z,85.70
2018-08-17T05:39:34.438Z,87.80
2018-08-17T05:42:02.554Z,90.00
2018-08-17T05:44:30.668Z,90.60
2018-08-17T05:46:58.768Z,90.70
2018-08-17T05:49:26.896Z,91.40
2018-08-17T05:51:55.012Z,91.80
2018-08-17T05:54:23.118Z,91.30
2018-08-17T05:56:51.233Z,90.00
2018-08-17T05:59:19.342Z,88.90
2018-08-17T06:01:47.433Z,90.20
2018-08-17T06:04:15.520Z,90.40
2018-08-17T06:06:43.660Z,91.10
2018-08-17T06:09:11.774Z,91.50
2018-08-17T06:11:39.934Z,91.70
2018-08-17T06:14:07.996Z,91.70
2018-08-17T06:16:36.120Z,91.90
2018-08-17T06:19:04.251Z,91.10
2018-08-17T06:21:32.346Z,91.00
2018-08-17T06:24:00.442Z,90.70
2018-08-17T06:26:28.531Z,90.40
2018-08-17T06:28:56.641Z,90.50
2018-08-17T06:31:24.742Z,89.80
2018-08-17T06:33:52.868Z,90.10
2018-08-17T06:36:20.994Z,90.20
2018-08-17T06:38:49.120Z,89.90
2018-08-17T06:41:17.240Z,87.90
2018-08-17T06:43:45.365Z,84.50
2018-08-17T15:02:44.645Z,63.30
2018-08-17T15:05:14.045Z,64.60
2018-08-17T15:07:42.196Z,67.70
2018-08-17T15:10:12.284Z,72.70
2018-08-17T15:12:41.114Z,81.00
2018-08-17T15:15:10.161Z,90.20
2018-08-17T15:17:38.250Z,93.10
2018-08-17T15:20:07.505Z,94.00
2018-08-17T15:22:35.666Z,95.10
2018-08-17T15:25:04.253Z,96.40
2018-08-17T15:27:32.424Z,99.00
2018-08-17T15:30:00.554Z,99.60
2018-08-17T15:32:28.653Z,99.90
2018-08-17T15:34:56.760Z,99.90
2018-08-17T15:37:24.866Z,99.90
2018-08-17T15:39:52.979Z,99.90
2018-08-17T15:42:21.072Z,99.90
2018-08-17T15:44:49.190Z,99.90
2018-08-17T15:47:17.273Z,99.10
2018-08-17T15:50:25.459Z,99.50
2018-08-17T15:52:53.578Z,99.90
2018-08-17T15:55:21.712Z,99.60
2018-08-17T15:57:49.947Z,99.90
2018-08-17T16:00:19.332Z,99.30
2018-08-17T16:02:47.464Z,99.90
2018-08-17T16:05:15.560Z,99.30
2018-08-17T16:07:43.669Z,98.00
2018-08-17T16:10:13.689Z,97.40
2018-08-17T16:12:41.768Z,97.70
2018-08-17T16:15:10.792Z,97.30
2018-08-17T16:17:39.293Z,96.40
2018-08-17T16:20:08.664Z,96.00
2018-08-17T16:22:36.809Z,96.10
2018-08-17T16:25:05.394Z,95.20
2018-08-17T16:27:33.564Z,94.40
2018-08-17T16:30:01.670Z,94.80
2018-08-17T16:32:29.757Z,94.00
2018-08-17T16:34:57.908Z,93.80
2018-08-17T16:37:26.098Z,94.10
2018-08-17T16:39:55.237Z,93.80
2018-08-17T16:42:30.739Z,93.30
2018-08-17T16:44:58.978Z,93.30
2018-08-17T16:47:27.114Z,94.00
2018-08-17T16:49:55.373Z,93.10
2018-08-17T16:52:23.501Z,93.40
2018-08-17T16:54:51.693Z,93.50
2018-08-17T16:57:19.868Z,93.50
2018-08-17T16:59:48.016Z,92.90
2018-08-17T17:02:16.108Z,94.10
2018-08-17T17:04:44.400Z,93.50
2018-08-17T17:07:12.485Z,93.60
2018-08-17T17:09:40.591Z,93.10
2018-08-17T17:12:13.569Z,92.80
2018-08-17T17:14:42.012Z,92.90
2018-08-17T17:17:10.113Z,93.10
2018-08-17T17:19:38.220Z,93.00
2018-08-17T17:22:06.611Z,92.40
2018-08-17T17:24:34.685Z,91.50
2018-08-17T17:27:02.910Z,91.90
2018-08-17T17:29:32.782Z,91.70
2018-08-17T17:32:00.916Z,91.70
2018-08-17T17:34:29.046Z,92.50
2018-08-17T17:36:57.429Z,93.00
2018-08-17T17:39:25.554Z,92.70
2018-08-17T17:41:53.749Z,92.50
2018-08-17T17:44:21.836Z,92.30
2018-08-17T17:46:49.960Z,92.50
2018-08-17T17:49:18.169Z,92.80
2018-08-17T17:51:46.277Z,92.90
2018-08-17T17:54:20.541Z,93.00
2018-08-17T17:56:56.353Z,93.10
2018-08-17T17:59:24.484Z,92.80
2018-08-17T18:01:52.562Z,92.60
2018-08-17T18:04:20.725Z,92.70
2018-08-17T18:06:48.833Z,92.40
2018-08-17T18:09:16.977Z,92.80
2018-08-17T18:11:45.079Z,92.90
2018-08-17T18:14:13.173Z,93.00
2018-08-17T18:16:41.285Z,93.00
2018-08-17T18:19:09.368Z,92.80
2018-08-17T18:21:37.520Z,93.00
2018-08-17T18:24:11.494Z,92.30
2018-08-17T18:26:45.135Z,92.40
2018-08-17T18:29:13.332Z,92.30
2018-08-17T18:31:41.421Z,92.40
2018-08-17T18:34:09.580Z,92.20
2018-08-17T18:36:37.674Z,92.00
2018-08-17T18:39:09.442Z,92.40
2018-08-17T18:41:37.588Z,92.70
2018-08-17T18:44:05.672Z,92.90
2018-08-17T18:46:33.773Z,93.10
2018-08-17T18:49:01.936Z,93.20
2018-08-17T18:51:30.056Z,93.20
2018-08-17T18:53:58.146Z,93.40
2018-08-17T18:56:26.326Z,93.90
2018-08-17T18:58:54.485Z,93.50
2018-08-17T19:01:22.669Z,93.40
2018-08-17T19:03:50.747Z,93.20
2018-08-17T19:06:18.852Z,93.30
2018-08-17T19:08:46.986Z,93.30
2018-08-17T19:11:15.140Z,93.60
2018-08-17T19:13:43.268Z,93.40
2018-08-17T19:16:11.361Z,93.90
2018-08-17T19:18:39.482Z,93.70
2018-08-17T19:21:11.272Z,93.80
2018-08-17T19:23:39.378Z,93.70
2018-08-17T19:26:08.658Z,93.50
2018-08-17T19:28:36.792Z,93.70
2018-08-17T19:31:04.996Z,94.10
2018-08-17T19:33:33.136Z,94.20
2018-08-17T19:36:02.372Z,94.10
2018-08-17T19:38:35.825Z,94.20
2018-08-17T19:41:03.912Z,93.90
2018-08-17T19:43:31.994Z,94.00
2018-08-17T19:46:00.232Z,93.80
2018-08-17T19:48:28.313Z,93.80
2018-08-17T19:50:56.412Z,93.80
2018-08-17T19:53:24.508Z,93.80
2018-08-17T19:55:52.749Z,93.90
2018-08-17T19:58:21.016Z,93.90
2018-08-17T20:00:49.012Z,94.20
2018-08-17T20:03:17.171Z,94.30
2018-08-17T20:05:45.263Z,94.40
2018-08-17T20:08:13.342Z,94.50
2018-08-17T20:10:42.312Z,94.70
2018-08-17T20:13:10.412Z,94.90
2018-08-17T20:15:38.514Z,95.00
2018-08-17T20:18:06.665Z,95.30
2018-08-17T20:20:34.788Z,95.30
2018-08-17T20:23:02.949Z,95.40
2018-08-17T20:25:31.066Z,95.50
2018-08-17T20:27:59.179Z,95.70
2018-08-17T20:30:27.323Z,95.80
2018-08-17T20:32:55.448Z,95.90
2018-08-17T20:35:23.540Z,96.20
2018-08-17T20:37:52.942Z,96.40
2018-08-17T20:40:21.369Z,96.30
2018-08-17T20:42:49.760Z,96.80
2018-08-17T20:45:17.980Z,97.20
2018-08-17T20:47:46.083Z,97.20
2018-08-17T20:50:17.089Z,97.20
2018-08-17T20:53:00.729Z,97.80
2018-08-17T20:55:28.885Z,97.70
2018-08-17T20:57:57.998Z,97.80
2018-08-17T21:00:27.465Z,97.90
2018-08-17T21:02:55.736Z,97.90
2018-08-17T21:05:23.833Z,97.70
2018-08-17T21:07:51.966Z,97.90
2018-08-17T21:10:20.244Z,98.20
2018-08-17T21:12:48.752Z,98.20
2018-08-17T21:15:17.335Z,98.20
2018-08-17T21:17:45.478Z,98.60
2018-08-17T21:20:13.584Z,98.60
2018-08-17T21:22:41.701Z,98.80
2018-08-17T21:25:10.002Z,98.80
2018-08-17T21:27:38.089Z,98.70
2018-08-17T21:30:06.832Z,99.00
2018-08-17T21:32:35.004Z,98.80
2018-08-17T21:35:03.195Z,98.90
2018-08-17T21:37:31.215Z,99.50
2018-08-17T21:39:59.336Z,99.20
2018-08-17T21:42:27.446Z,99.60
2018-08-17T21:44:55.537Z,99.60
2018-08-17T21:47:23.634Z,99.80
2018-08-17T21:49:54.617Z,99.90
2018-08-17T21:52:24.083Z,99.90
2018-08-17T21:54:52.257Z,99.90
2018-08-17T21:57:20.433Z,99.90
2018-08-17T21:59:49.587Z,99.90
2018-08-17T22:02:18.436Z,99.90
2018-08-17T22:04:46.526Z,99.90
2018-08-17T22:07:20.514Z,99.90
2018-08-17T22:09:49.000Z,99.90
2018-08-17T22:12:17.140Z,99.90
2018-08-17T22:14:46.256Z,99.90
2018-08-17T22:17:26.369Z,99.90
2018-08-17T22:19:54.503Z,99.90
2018-08-17T22:22:22.620Z,99.90
2018-08-17T22:24:52.827Z,99.90
2018-08-17T22:27:21.623Z,99.90
2018-08-17T22:29:50.990Z,99.90
2018-08-17T22:32:19.387Z,99.90
2018-08-17T22:34:47.928Z,99.90
2018-08-17T22:37:16.169Z,99.90
2018-08-17T22:39:44.308Z,99.90
2018-08-17T22:42:12.715Z,99.90
2018-08-17T22:44:40.838Z,99.90
2018-08-17T22:47:18.062Z,99.90
2018-08-17T22:49:46.545Z,99.90
2018-08-17T22:52:14.645Z,99.90
2018-08-17T22:55:01.437Z,99.90
2018-08-17T22:57:30.281Z,99.90
2018-08-17T23:00:13.751Z,99.90
2018-08-17T23:02:43.062Z,99.90
2018-08-17T23:05:12.681Z,99.90
2018-08-17T23:07:40.817Z,99.90
2018-08-17T23:10:16.339Z,99.90
2018-08-17T23:12:45.601Z,99.90
2018-08-17T23:15:13.851Z,99.90
2018-08-17T23:17:48.508Z,99.90
2018-08-17T23:20:20.860Z,99.90
2018-08-17T23:22:50.377Z,99.90
2018-08-17T23:25:18.472Z,99.90
2018-08-17T23:27:47.352Z,99.90
